sensor_id;sensor_type;location;lat;lon;timestamp;temperature;humidity
67586;SHT31;55785;47.946;20.540;2022-08-01T00:00:10;17.17;77.41
67586;SHT31;55785;47.946;20.540;2022-08-01T00:02:39;17.10;78.39
67586;SHT31;55785;47.946;20.540;2022-08-01T00:05:05;17.09;79.02
67586;SHT31;55785;47.946;20.540;2022-08-01T00:07:32;17.00;79.87
67586;SHT31;55785;47.946;20.540;2022-08-01T00:09:57;16.94;80.12
67586;SHT31;55785;47.946;20.540;2022-08-01T00:12:23;16.80;81.22
67586;SHT31;55785;47.946;20.540;2022-08-01T00:14:48;16.65;81.44
67586;SHT31;55785;47.946;20.540;2022-08-01T00:17:14;16.69;81.17
67586;SHT31;55785;47.946;20.540;2022-08-01T00:19:39;16.75;80.87
67586;SHT31;55785;47.946;20.540;2022-08-01T00:22:04;16.72;80.75
67586;SHT31;55785;47.946;20.540;2022-08-01T00:24:30;16.72;81.19
67586;SHT31;55785;47.946;20.540;2022-08-01T00:26:55;16.80;81.58
67586;SHT31;55785;47.946;20.540;2022-08-01T00:29:20;16.76;81.33
67586;SHT31;55785;47.946;20.540;2022-08-01T00:31:46;16.59;82.68
67586;SHT31;55785;47.946;20.540;2022-08-01T00:34:11;16.65;82.52
67586;SHT31;55785;47.946;20.540;2022-08-01T00:36:36;16.72;80.91
67586;SHT31;55785;47.946;20.540;2022-08-01T00:39:02;16.69;81.26
67586;SHT31;55785;47.946;20.540;2022-08-01T00:41:27;16.61;82.96
67586;SHT31;55785;47.946;20.540;2022-08-01T00:43:52;16.51;83.20
67586;SHT31;55785;47.946;20.540;2022-08-01T00:46:18;16.45;83.48
67586;SHT31;55785;47.946;20.540;2022-08-01T00:48:43;16.55;83.28
67586;SHT31;55785;47.946;20.540;2022-08-01T00:51:09;16.52;83.43
67586;SHT31;55785;47.946;20.540;2022-08-01T00:53:34;16.53;83.78
67586;SHT31;55785;47.946;20.540;2022-08-01T00:56:00;16.52;83.46
67586;SHT31;55785;47.946;20.540;2022-08-01T00:58:26;16.49;83.60
67586;SHT31;55785;47.946;20.540;2022-08-01T01:00:52;16.42;84.00
67586;SHT31;55785;47.946;20.540;2022-08-01T01:03:17;16.40;83.65
67586;SHT31;55785;47.946;20.540;2022-08-01T01:05:58;16.45;83.77
67586;SHT31;55785;47.946;20.540;2022-08-01T01:08:32;16.44;84.15
67586;SHT31;55785;47.946;20.540;2022-08-01T01:11:04;16.47;83.59
67586;SHT31;55785;47.946;20.540;2022-08-01T01:16:02;16.53;83.84
67586;SHT31;55785;47.946;20.540;2022-08-01T01:18:33;16.56;83.51
67586;SHT31;55785;47.946;20.540;2022-08-01T01:26:52;16.47;84.07
67586;SHT31;55785;47.946;20.540;2022-08-01T01:29:28;16.47;83.90
67586;SHT31;55785;47.946;20.540;2022-08-01T01:32:03;16.49;84.16
67586;SHT31;55785;47.946;20.540;2022-08-01T01:34:32;16.36;84.90
67586;SHT31;55785;47.946;20.540;2022-08-01T01:36:59;16.40;84.71
67586;SHT31;55785;47.946;20.540;2022-08-01T01:39:28;16.44;84.45
67586;SHT31;55785;47.946;20.540;2022-08-01T01:41:55;16.44;84.44
67586;SHT31;55785;47.946;20.540;2022-08-01T01:44:21;16.48;84.26
67586;SHT31;55785;47.946;20.540;2022-08-01T01:46:47;16.38;84.69
67586;SHT31;55785;47.946;20.540;2022-08-01T01:49:14;16.36;84.78
67586;SHT31;55785;47.946;20.540;2022-08-01T01:51:40;16.44;84.27
67586;SHT31;55785;47.946;20.540;2022-08-01T01:54:08;16.35;84.37
67586;SHT31;55785;47.946;20.540;2022-08-01T01:56:35;16.26;84.71
67586;SHT31;55785;47.946;20.540;2022-08-01T01:59:02;16.33;85.17
67586;SHT31;55785;47.946;20.540;2022-08-01T02:01:30;16.22;85.99
67586;SHT31;55785;47.946;20.540;2022-08-01T02:03:56;16.24;85.68
67586;SHT31;55785;47.946;20.540;2022-08-01T02:06:23;16.24;85.35
67586;SHT31;55785;47.946;20.540;2022-08-01T02:08:52;16.20;85.74
67586;SHT31;55785;47.946;20.540;2022-08-01T02:11:19;16.40;85.68
67586;SHT31;55785;47.946;20.540;2022-08-01T02:13:57;16.44;85.85
67586;SHT31;55785;47.946;20.540;2022-08-01T02:16:26;16.35;85.74
67586;SHT31;55785;47.946;20.540;2022-08-01T02:18:52;16.35;85.39
67586;SHT31;55785;47.946;20.540;2022-08-01T02:21:23;16.35;85.46
67586;SHT31;55785;47.946;20.540;2022-08-01T02:23:51;16.48;85.04
67586;SHT31;55785;47.946;20.540;2022-08-01T02:26:18;16.48;85.40
67586;SHT31;55785;47.946;20.540;2022-08-01T02:28:47;16.26;86.14
67586;SHT31;55785;47.946;20.540;2022-08-01T02:31:17;16.28;85.93
67586;SHT31;55785;47.946;20.540;2022-08-01T02:33:46;16.29;86.06
67586;SHT31;55785;47.946;20.540;2022-08-01T02:36:16;16.28;86.36
67586;SHT31;55785;47.946;20.540;2022-08-01T02:38:43;16.33;85.89
67586;SHT31;55785;47.946;20.540;2022-08-01T02:41:13;16.26;86.31
67586;SHT31;55785;47.946;20.540;2022-08-01T02:43:43;16.31;86.20
67586;SHT31;55785;47.946;20.540;2022-08-01T02:46:17;16.31;85.58
67586;SHT31;55785;47.946;20.540;2022-08-01T02:48:45;16.26;85.67
67586;SHT31;55785;47.946;20.540;2022-08-01T02:51:12;16.25;85.69
67586;SHT31;55785;47.946;20.540;2022-08-01T02:53:38;16.22;86.45
67586;SHT31;55785;47.946;20.540;2022-08-01T02:56:06;16.25;86.42
67586;SHT31;55785;47.946;20.540;2022-08-01T02:58:34;16.21;86.27
67586;SHT31;55785;47.946;20.540;2022-08-01T03:01:02;16.24;85.87
67586;SHT31;55785;47.946;20.540;2022-08-01T03:03:29;16.28;85.98
67586;SHT31;55785;47.946;20.540;2022-08-01T03:05:55;16.25;85.07
67586;SHT31;55785;47.946;20.540;2022-08-01T03:08:22;16.25;85.53
67586;SHT31;55785;47.946;20.540;2022-08-01T03:10:48;16.29;84.89
67586;SHT31;55785;47.946;20.540;2022-08-01T03:13:16;16.36;84.32
67586;SHT31;55785;47.946;20.540;2022-08-01T03:15:43;16.33;84.02
67586;SHT31;55785;47.946;20.540;2022-08-01T03:18:10;16.29;84.46
67586;SHT31;55785;47.946;20.540;2022-08-01T03:20:36;16.26;85.02
67586;SHT31;55785;47.946;20.540;2022-08-01T03:23:05;16.31;84.98
67586;SHT31;55785;47.946;20.540;2022-08-01T03:25:31;16.17;86.15
67586;SHT31;55785;47.946;20.540;2022-08-01T03:27:59;16.20;86.13
67586;SHT31;55785;47.946;20.540;2022-08-01T03:30:26;16.31;84.80
67586;SHT31;55785;47.946;20.540;2022-08-01T03:32:52;16.29;85.89
67586;SHT31;55785;47.946;20.540;2022-08-01T03:35:18;16.24;85.82
67586;SHT31;55785;47.946;20.540;2022-08-01T03:37:46;16.36;85.40
67586;SHT31;55785;47.946;20.540;2022-08-01T03:40:23;16.48;84.24
67586;SHT31;55785;47.946;20.540;2022-08-01T03:42:53;16.44;84.78
67586;SHT31;55785;47.946;20.540;2022-08-01T03:45:23;16.31;85.73
67586;SHT31;55785;47.946;20.540;2022-08-01T03:47:55;16.28;86.12
67586;SHT31;55785;47.946;20.540;2022-08-01T03:50:23;16.38;85.44
67586;SHT31;55785;47.946;20.540;2022-08-01T03:52:50;16.41;85.37
67586;SHT31;55785;47.946;20.540;2022-08-01T03:55:16;16.41;85.98
67586;SHT31;55785;47.946;20.540;2022-08-01T03:57:44;16.47;85.37
67586;SHT31;55785;47.946;20.540;2022-08-01T04:00:10;16.38;85.66
67586;SHT31;55785;47.946;20.540;2022-08-01T04:02:36;16.45;85.18
67586;SHT31;55785;47.946;20.540;2022-08-01T04:05:02;16.47;85.33
67586;SHT31;55785;47.946;20.540;2022-08-01T04:07:30;16.52;85.29
67586;SHT31;55785;47.946;20.540;2022-08-01T04:09:56;16.52;85.38
67586;SHT31;55785;47.946;20.540;2022-08-01T04:12:21;16.45;85.51
67586;SHT31;55785;47.946;20.540;2022-08-01T04:14:47;16.38;85.34
67586;SHT31;55785;47.946;20.540;2022-08-01T04:17:12;16.36;85.30
67586;SHT31;55785;47.946;20.540;2022-08-01T04:19:38;16.44;84.97
67586;SHT31;55785;47.946;20.540;2022-08-01T04:22:04;16.36;85.70
67586;SHT31;55785;47.946;20.540;2022-08-01T04:24:30;16.51;84.41
67586;SHT31;55785;47.946;20.540;2022-08-01T04:26:58;16.51;84.27
67586;SHT31;55785;47.946;20.540;2022-08-01T04:29:26;16.51;84.39
67586;SHT31;55785;47.946;20.540;2022-08-01T04:31:54;16.55;84.07
67586;SHT31;55785;47.946;20.540;2022-08-01T04:34:23;16.53;84.78
67586;SHT31;55785;47.946;20.540;2022-08-01T04:36:50;16.51;83.57
67586;SHT31;55785;47.946;20.540;2022-08-01T04:39:16;16.48;83.92
67586;SHT31;55785;47.946;20.540;2022-08-01T04:41:44;16.58;84.82
67586;SHT31;55785;47.946;20.540;2022-08-01T04:44:09;16.61;84.12
67586;SHT31;55785;47.946;20.540;2022-08-01T04:46:35;16.66;84.68
67586;SHT31;55785;47.946;20.540;2022-08-01T04:49:02;16.72;83.46
67586;SHT31;55785;47.946;20.540;2022-08-01T04:51:29;16.72;83.68
67586;SHT31;55785;47.946;20.540;2022-08-01T04:53:55;16.76;83.11
67586;SHT31;55785;47.946;20.540;2022-08-01T04:56:20;16.90;81.81
67586;SHT31;55785;47.946;20.540;2022-08-01T04:58:46;16.97;81.44
67586;SHT31;55785;47.946;20.540;2022-08-01T05:01:12;17.00;81.44
67586;SHT31;55785;47.946;20.540;2022-08-01T05:03:37;16.97;81.21
67586;SHT31;55785;47.946;20.540;2022-08-01T05:06:03;17.04;81.45
67586;SHT31;55785;47.946;20.540;2022-08-01T05:08:28;17.06;81.12
67586;SHT31;55785;47.946;20.540;2022-08-01T05:10:53;17.24;81.64
67586;SHT31;55785;47.946;20.540;2022-08-01T05:13:19;17.42;80.51
67586;SHT31;55785;47.946;20.540;2022-08-01T05:15:45;17.52;79.58
67586;SHT31;55785;47.946;20.540;2022-08-01T05:18:10;17.59;79.73
67586;SHT31;55785;47.946;20.540;2022-08-01T05:20:36;17.59;80.62
67586;SHT31;55785;47.946;20.540;2022-08-01T05:23:01;17.62;80.79
67586;SHT31;55785;47.946;20.540;2022-08-01T05:25:26;17.59;79.95
67586;SHT31;55785;47.946;20.540;2022-08-01T05:27:51;17.57;80.14
67586;SHT31;55785;47.946;20.540;2022-08-01T05:30:17;17.64;79.29
67586;SHT31;55785;47.946;20.540;2022-08-01T05:32:42;17.69;79.10
67586;SHT31;55785;47.946;20.540;2022-08-01T05:35:08;17.68;79.19
67586;SHT31;55785;47.946;20.540;2022-08-01T05:37:34;17.69;78.89
67586;SHT31;55785;47.946;20.540;2022-08-01T05:39:59;17.82;78.88
67586;SHT31;55785;47.946;20.540;2022-08-01T05:42:24;17.88;79.06
67586;SHT31;55785;47.946;20.540;2022-08-01T05:44:50;17.96;78.48
67586;SHT31;55785;47.946;20.540;2022-08-01T05:47:15;17.99;78.10
67586;SHT31;55785;47.946;20.540;2022-08-01T05:49:40;17.96;78.34
67586;SHT31;55785;47.946;20.540;2022-08-01T05:52:06;17.95;76.83
67586;SHT31;55785;47.946;20.540;2022-08-01T05:54:31;17.95;76.55
67586;SHT31;55785;47.946;20.540;2022-08-01T05:56:56;17.95;77.36
67586;SHT31;55785;47.946;20.540;2022-08-01T05:59:22;18.02;75.09
67586;SHT31;55785;47.946;20.540;2022-08-01T06:01:47;18.09;75.77
67586;SHT31;55785;47.946;20.540;2022-08-01T06:04:12;18.23;74.70
67586;SHT31;55785;47.946;20.540;2022-08-01T06:06:37;18.20;76.22
67586;SHT31;55785;47.946;20.540;2022-08-01T06:09:03;18.37;74.41
67586;SHT31;55785;47.946;20.540;2022-08-01T06:11:28;18.36;75.01
67586;SHT31;55785;47.946;20.540;2022-08-01T06:13:53;18.44;74.61
67586;SHT31;55785;47.946;20.540;2022-08-01T06:16:19;18.53;73.94
67586;SHT31;55785;47.946;20.540;2022-08-01T06:18:44;18.63;73.51
67586;SHT31;55785;47.946;20.540;2022-08-01T06:21:09;18.75;72.80
67586;SHT31;55785;47.946;20.540;2022-08-01T06:23:35;18.87;72.59
67586;SHT31;55785;47.946;20.540;2022-08-01T06:26:00;18.87;71.90
67586;SHT31;55785;47.946;20.540;2022-08-01T06:28:25;18.96;71.93
67586;SHT31;55785;47.946;20.540;2022-08-01T06:30:51;19.11;71.31
67586;SHT31;55785;47.946;20.540;2022-08-01T06:33:16;19.23;71.50
67586;SHT31;55785;47.946;20.540;2022-08-01T06:35:41;19.34;72.86
67586;SHT31;55785;47.946;20.540;2022-08-01T06:38:07;19.40;69.88
67586;SHT31;55785;47.946;20.540;2022-08-01T06:40:32;19.42;69.38
67586;SHT31;55785;47.946;20.540;2022-08-01T06:42:57;19.39;69.56
67586;SHT31;55785;47.946;20.540;2022-08-01T06:45:23;19.39;69.89
67586;SHT31;55785;47.946;20.540;2022-08-01T06:47:48;19.53;70.08
67586;SHT31;55785;47.946;20.540;2022-08-01T06:50:13;19.64;70.51
67586;SHT31;55785;47.946;20.540;2022-08-01T06:52:39;19.66;70.14
67586;SHT31;55785;47.946;20.540;2022-08-01T06:55:05;19.69;68.86
67586;SHT31;55785;47.946;20.540;2022-08-01T06:57:30;20.05;70.74
67586;SHT31;55785;47.946;20.540;2022-08-01T06:59:56;20.28;69.16
67586;SHT31;55785;47.946;20.540;2022-08-01T07:02:22;20.46;68.80
67586;SHT31;55785;47.946;20.540;2022-08-01T07:04:47;20.83;66.30
67586;SHT31;55785;47.946;20.540;2022-08-01T07:07:12;21.04;65.50
67586;SHT31;55785;47.946;20.540;2022-08-01T07:09:38;21.15;62.69
67586;SHT31;55785;47.946;20.540;2022-08-01T07:12:03;21.07;63.54
67586;SHT31;55785;47.946;20.540;2022-08-01T07:14:29;21.01;62.47
67586;SHT31;55785;47.946;20.540;2022-08-01T07:16:54;20.90;63.73
67586;SHT31;55785;47.946;20.540;2022-08-01T07:19:19;20.77;63.06
67586;SHT31;55785;47.946;20.540;2022-08-01T07:21:45;20.69;63.05
67586;SHT31;55785;47.946;20.540;2022-08-01T07:24:13;20.72;63.55
67586;SHT31;55785;47.946;20.540;2022-08-01T07:26:43;20.81;63.93
67586;SHT31;55785;47.946;20.540;2022-08-01T07:29:09;21.01;64.01
67586;SHT31;55785;47.946;20.540;2022-08-01T07:31:34;21.25;62.64
67586;SHT31;55785;47.946;20.540;2022-08-01T07:33:59;21.72;57.78
67586;SHT31;55785;47.946;20.540;2022-08-01T07:36:25;21.75;58.88
67586;SHT31;55785;47.946;20.540;2022-08-01T07:38:50;21.73;57.57
67586;SHT31;55785;47.946;20.540;2022-08-01T07:41:15;21.75;57.14
67586;SHT31;55785;47.946;20.540;2022-08-01T07:43:41;21.83;56.92
67586;SHT31;55785;47.946;20.540;2022-08-01T07:46:06;21.88;56.22
67586;SHT31;55785;47.946;20.540;2022-08-01T07:48:32;21.89;55.11
67586;SHT31;55785;47.946;20.540;2022-08-01T07:50:57;21.96;57.88
67586;SHT31;55785;47.946;20.540;2022-08-01T07:53:22;22.18;56.45
67586;SHT31;55785;47.946;20.540;2022-08-01T07:55:48;22.47;56.18
67586;SHT31;55785;47.946;20.540;2022-08-01T07:58:14;22.65;56.42
67586;SHT31;55785;47.946;20.540;2022-08-01T08:00:40;22.60;56.44
67586;SHT31;55785;47.946;20.540;2022-08-01T08:03:06;22.57;55.52
67586;SHT31;55785;47.946;20.540;2022-08-01T08:05:32;22.61;54.30
67586;SHT31;55785;47.946;20.540;2022-08-01T08:07:57;22.99;52.11
67586;SHT31;55785;47.946;20.540;2022-08-01T08:10:22;23.09;52.38
67586;SHT31;55785;47.946;20.540;2022-08-01T08:12:48;23.33;55.56
67586;SHT31;55785;47.946;20.540;2022-08-01T08:15:13;23.10;54.54
67586;SHT31;55785;47.946;20.540;2022-08-01T08:17:39;23.51;53.04
67586;SHT31;55785;47.946;20.540;2022-08-01T08:20:07;23.34;53.08
67586;SHT31;55785;47.946;20.540;2022-08-01T08:22:33;23.33;50.14
67586;SHT31;55785;47.946;20.540;2022-08-01T08:24:59;23.94;50.28
67586;SHT31;55785;47.946;20.540;2022-08-01T08:27:24;24.01;47.99
67586;SHT31;55785;47.946;20.540;2022-08-01T08:29:50;23.94;46.90
67586;SHT31;55785;47.946;20.540;2022-08-01T08:32:15;24.06;47.45
67586;SHT31;55785;47.946;20.540;2022-08-01T08:34:41;23.91;43.35
67586;SHT31;55785;47.946;20.540;2022-08-01T08:37:06;24.12;44.54
67586;SHT31;55785;47.946;20.540;2022-08-01T08:39:31;24.55;43.63
67586;SHT31;55785;47.946;20.540;2022-08-01T08:41:59;24.84;44.43
67586;SHT31;55785;47.946;20.540;2022-08-01T08:44:25;24.80;42.94
67586;SHT31;55785;47.946;20.540;2022-08-01T08:46:51;24.76;43.06
67586;SHT31;55785;47.946;20.540;2022-08-01T08:49:20;24.98;43.22
67586;SHT31;55785;47.946;20.540;2022-08-01T08:51:50;25.08;45.11
67586;SHT31;55785;47.946;20.540;2022-08-01T08:54:17;24.95;43.71
67586;SHT31;55785;47.946;20.540;2022-08-01T08:56:44;24.94;44.45
67586;SHT31;55785;47.946;20.540;2022-08-01T08:59:11;24.76;41.53
67586;SHT31;55785;47.946;20.540;2022-08-01T09:01:37;25.21;43.18
67586;SHT31;55785;47.946;20.540;2022-08-01T09:04:03;25.37;42.96
67586;SHT31;55785;47.946;20.540;2022-08-01T09:06:29;25.41;41.55
67586;SHT31;55785;47.946;20.540;2022-08-01T09:08:54;25.78;43.42
67586;SHT31;55785;47.946;20.540;2022-08-01T09:11:20;25.96;42.16
67586;SHT31;55785;47.946;20.540;2022-08-01T09:14:20;26.16;40.46
67586;SHT31;55785;47.946;20.540;2022-08-01T09:16:45;26.20;39.90
67586;SHT31;55785;47.946;20.540;2022-08-01T09:19:19;26.18;40.51
67586;SHT31;55785;47.946;20.540;2022-08-01T09:22:00;25.80;39.10
67586;SHT31;55785;47.946;20.540;2022-08-01T09:24:27;25.89;40.78
67586;SHT31;55785;47.946;20.540;2022-08-01T09:26:53;26.08;40.40
67586;SHT31;55785;47.946;20.540;2022-08-01T09:29:30;25.92;39.53
67586;SHT31;55785;47.946;20.540;2022-08-01T09:31:55;25.96;39.88
67586;SHT31;55785;47.946;20.540;2022-08-01T09:34:28;26.23;39.80
67586;SHT31;55785;47.946;20.540;2022-08-01T09:36:57;26.33;39.84
67586;SHT31;55785;47.946;20.540;2022-08-01T09:39:25;26.36;39.31
67586;SHT31;55785;47.946;20.540;2022-08-01T09:41:51;26.62;39.13
67586;SHT31;55785;47.946;20.540;2022-08-01T09:44:18;26.76;41.74
67586;SHT31;55785;47.946;20.540;2022-08-01T09:46:55;26.95;39.36
67586;SHT31;55785;47.946;20.540;2022-08-01T09:49:31;26.84;39.36
67586;SHT31;55785;47.946;20.540;2022-08-01T09:51:58;26.38;39.70
67586;SHT31;55785;47.946;20.540;2022-08-01T09:54:32;26.33;38.15
67586;SHT31;55785;47.946;20.540;2022-08-01T09:57:14;26.55;39.75
67586;SHT31;55785;47.946;20.540;2022-08-01T09:59:44;26.71;38.80
67586;SHT31;55785;47.946;20.540;2022-08-01T10:02:36;26.81;40.19
67586;SHT31;55785;47.946;20.540;2022-08-01T10:05:00;26.95;38.55
67586;SHT31;55785;47.946;20.540;2022-08-01T10:07:26;26.92;38.92
67586;SHT31;55785;47.946;20.540;2022-08-01T10:09:51;27.06;40.62
67586;SHT31;55785;47.946;20.540;2022-08-01T10:12:19;27.64;38.73
67586;SHT31;55785;47.946;20.540;2022-08-01T10:14:48;27.81;39.33
67586;SHT31;55785;47.946;20.540;2022-08-01T10:17:15;27.90;38.22
67586;SHT31;55785;47.946;20.540;2022-08-01T10:19:41;27.61;38.52
67586;SHT31;55785;47.946;20.540;2022-08-01T10:22:09;27.88;39.72
67586;SHT31;55785;47.946;20.540;2022-08-01T10:24:37;28.20;37.66
67586;SHT31;55785;47.946;20.540;2022-08-01T10:27:05;27.95;37.90
67586;SHT31;55785;47.946;20.540;2022-08-01T10:29:36;28.11;39.35
67586;SHT31;55785;47.946;20.540;2022-08-01T10:32:04;28.15;38.83
67586;SHT31;55785;47.946;20.540;2022-08-01T10:34:29;28.23;38.64
67586;SHT31;55785;47.946;20.540;2022-08-01T10:36:55;28.08;37.35
67586;SHT31;55785;47.946;20.540;2022-08-01T10:39:21;28.26;35.69
67586;SHT31;55785;47.946;20.540;2022-08-01T10:41:47;28.16;35.33
67586;SHT31;55785;47.946;20.540;2022-08-01T10:44:13;28.39;36.46
67586;SHT31;55785;47.946;20.540;2022-08-01T10:46:42;28.52;38.24
67586;SHT31;55785;47.946;20.540;2022-08-01T10:49:13;28.93;37.22
67586;SHT31;55785;47.946;20.540;2022-08-01T10:51:40;28.71;36.48
67586;SHT31;55785;47.946;20.540;2022-08-01T10:54:07;28.76;36.12
67586;SHT31;55785;47.946;20.540;2022-08-01T10:56:47;28.56;36.18
67586;SHT31;55785;47.946;20.540;2022-08-01T10:59:24;28.69;36.79
67586;SHT31;55785;47.946;20.540;2022-08-01T11:02:00;28.13;36.04
67586;SHT31;55785;47.946;20.540;2022-08-01T11:04:51;28.12;35.51
67586;SHT31;55785;47.946;20.540;2022-08-01T11:07:22;28.73;36.26
67586;SHT31;55785;47.946;20.540;2022-08-01T11:10:02;28.98;34.72
67586;SHT31;55785;47.946;20.540;2022-08-01T11:12:38;29.49;34.41
67586;SHT31;55785;47.946;20.540;2022-08-01T11:20:13;29.79;33.51
67586;SHT31;55785;47.946;20.540;2022-08-01T11:25:25;29.48;33.94
67586;SHT31;55785;47.946;20.540;2022-08-01T11:30:41;29.75;32.32
67586;SHT31;55785;47.946;20.540;2022-08-01T11:33:07;29.97;34.09
67586;SHT31;55785;47.946;20.540;2022-08-01T11:35:36;29.46;34.88
67586;SHT31;55785;47.946;20.540;2022-08-01T11:38:27;29.19;34.28
67586;SHT31;55785;47.946;20.540;2022-08-01T11:41:21;28.73;36.54
67586;SHT31;55785;47.946;20.540;2022-08-01T11:44:06;28.61;34.89
67586;SHT31;55785;47.946;20.540;2022-08-01T11:46:58;27.95;37.25
67586;SHT31;55785;47.946;20.540;2022-08-01T11:52:05;28.18;36.23
67586;SHT31;55785;47.946;20.540;2022-08-01T11:54:45;28.18;36.84
67586;SHT31;55785;47.946;20.540;2022-08-01T11:57:23;28.12;37.05
67586;SHT31;55785;47.946;20.540;2022-08-01T11:59:51;28.31;37.01
67586;SHT31;55785;47.946;20.540;2022-08-01T12:02:33;29.21;37.18
67586;SHT31;55785;47.946;20.540;2022-08-01T12:05:01;29.62;35.05
67586;SHT31;55785;47.946;20.540;2022-08-01T12:07:29;29.58;34.96
67586;SHT31;55785;47.946;20.540;2022-08-01T12:12:35;28.77;35.68
67586;SHT31;55785;47.946;20.540;2022-08-01T12:15:06;29.58;34.55
67586;SHT31;55785;47.946;20.540;2022-08-01T12:17:35;29.79;33.41
67586;SHT31;55785;47.946;20.540;2022-08-01T12:20:03;30.09;34.36
67586;SHT31;55785;47.946;20.540;2022-08-01T12:22:29;30.47;32.95
67586;SHT31;55785;47.946;20.540;2022-08-01T12:24:55;30.68;31.34
67586;SHT31;55785;47.946;20.540;2022-08-01T12:27:28;30.96;32.31
67586;SHT31;55785;47.946;20.540;2022-08-01T12:29:54;31.25;31.93
67586;SHT31;55785;47.946;20.540;2022-08-01T12:32:29;30.98;31.73
67586;SHT31;55785;47.946;20.540;2022-08-01T12:34:55;31.09;32.11
67586;SHT31;55785;47.946;20.540;2022-08-01T12:37:21;31.25;32.37
67586;SHT31;55785;47.946;20.540;2022-08-01T12:39:47;31.39;31.11
67586;SHT31;55785;47.946;20.540;2022-08-01T12:42:12;31.19;31.80
67586;SHT31;55785;47.946;20.540;2022-08-01T12:44:39;30.95;31.88
67586;SHT31;55785;47.946;20.540;2022-08-01T12:47:06;30.95;32.65
67586;SHT31;55785;47.946;20.540;2022-08-01T12:49:42;30.92;31.87
67586;SHT31;55785;47.946;20.540;2022-08-01T12:52:08;30.75;32.20
67586;SHT31;55785;47.946;20.540;2022-08-01T12:55:10;30.90;32.18
67586;SHT31;55785;47.946;20.540;2022-08-01T12:57:38;31.12;31.64
67586;SHT31;55785;47.946;20.540;2022-08-01T13:00:15;30.83;31.55
67586;SHT31;55785;47.946;20.540;2022-08-01T13:02:41;29.89;33.13
67586;SHT31;55785;47.946;20.540;2022-08-01T13:05:08;29.65;33.58
67586;SHT31;55785;47.946;20.540;2022-08-01T13:07:49;29.44;33.58
67586;SHT31;55785;47.946;20.540;2022-08-01T13:10:25;29.44;34.80
67586;SHT31;55785;47.946;20.540;2022-08-01T13:12:52;29.38;34.85
67586;SHT31;55785;47.946;20.540;2022-08-01T13:15:20;29.41;34.24
67586;SHT31;55785;47.946;20.540;2022-08-01T13:17:46;29.66;34.88
67586;SHT31;55785;47.946;20.540;2022-08-01T13:20:21;29.25;34.14
67586;SHT31;55785;47.946;20.540;2022-08-01T13:22:47;28.80;36.51
67586;SHT31;55785;47.946;20.540;2022-08-01T13:25:14;28.32;36.08
67586;SHT31;55785;47.946;20.540;2022-08-01T13:27:40;28.64;36.22
67586;SHT31;55785;47.946;20.540;2022-08-01T13:32:37;28.23;35.95
67586;SHT31;55785;47.946;20.540;2022-08-01T13:35:04;28.35;37.44
67586;SHT31;55785;47.946;20.540;2022-08-01T13:37:29;29.15;35.85
67586;SHT31;55785;47.946;20.540;2022-08-01T13:39:55;30.14;34.26
67586;SHT31;55785;47.946;20.540;2022-08-01T13:42:20;30.27;33.15
67586;SHT31;55785;47.946;20.540;2022-08-01T13:44:45;30.51;33.23
67586;SHT31;55785;47.946;20.540;2022-08-01T13:47:11;30.30;33.61
67586;SHT31;55785;47.946;20.540;2022-08-01T13:49:36;30.51;32.50
67586;SHT31;55785;47.946;20.540;2022-08-01T13:52:02;30.82;32.69
67586;SHT31;55785;47.946;20.540;2022-08-01T13:54:27;30.93;32.02
67586;SHT31;55785;47.946;20.540;2022-08-01T13:56:53;31.53;30.69
67586;SHT31;55785;47.946;20.540;2022-08-01T13:59:19;31.51;30.91
67586;SHT31;55785;47.946;20.540;2022-08-01T14:01:45;30.69;32.03
67586;SHT31;55785;47.946;20.540;2022-08-01T14:04:10;30.54;32.89
67586;SHT31;55785;47.946;20.540;2022-08-01T14:06:36;30.28;33.44
67586;SHT31;55785;47.946;20.540;2022-08-01T14:09:03;30.68;32.57
67586;SHT31;55785;47.946;20.540;2022-08-01T14:11:28;31.15;31.56
67586;SHT31;55785;47.946;20.540;2022-08-01T14:13:53;30.95;32.58
67586;SHT31;55785;47.946;20.540;2022-08-01T14:16:19;30.76;32.23
67586;SHT31;55785;47.946;20.540;2022-08-01T14:18:44;30.28;33.94
67586;SHT31;55785;47.946;20.540;2022-08-01T14:21:10;29.69;33.92
67586;SHT31;55785;47.946;20.540;2022-08-01T14:23:35;29.41;34.12
67586;SHT31;55785;47.946;20.540;2022-08-01T14:26:01;28.98;34.17
67586;SHT31;55785;47.946;20.540;2022-08-01T14:28:26;29.03;34.64
67586;SHT31;55785;47.946;20.540;2022-08-01T14:30:52;29.24;35.33
67586;SHT31;55785;47.946;20.540;2022-08-01T14:33:17;29.44;35.00
67586;SHT31;55785;47.946;20.540;2022-08-01T14:35:42;29.75;34.64
67586;SHT31;55785;47.946;20.540;2022-08-01T14:38:08;30.06;33.71
67586;SHT31;55785;47.946;20.540;2022-08-01T14:40:33;29.96;33.07
67586;SHT31;55785;47.946;20.540;2022-08-01T14:42:59;29.63;33.81
67586;SHT31;55785;47.946;20.540;2022-08-01T14:45:24;29.38;34.86
67586;SHT31;55785;47.946;20.540;2022-08-01T14:47:50;29.42;34.07
67586;SHT31;55785;47.946;20.540;2022-08-01T14:50:15;29.07;35.40
67586;SHT31;55785;47.946;20.540;2022-08-01T14:52:42;28.56;35.87
67586;SHT31;55785;47.946;20.540;2022-08-01T14:55:09;28.66;35.89
67586;SHT31;55785;47.946;20.540;2022-08-01T14:57:35;28.81;35.38
67586;SHT31;55785;47.946;20.540;2022-08-01T15:00:03;29.14;34.53
67586;SHT31;55785;47.946;20.540;2022-08-01T15:02:28;29.34;34.34
67586;SHT31;55785;47.946;20.540;2022-08-01T15:04:54;29.18;35.13
67586;SHT31;55785;47.946;20.540;2022-08-01T15:07:19;29.04;34.28
67586;SHT31;55785;47.946;20.540;2022-08-01T15:09:45;29.03;34.71
67586;SHT31;55785;47.946;20.540;2022-08-01T15:12:10;28.88;35.88
67586;SHT31;55785;47.946;20.540;2022-08-01T15:14:36;28.88;36.54
67586;SHT31;55785;47.946;20.540;2022-08-01T15:17:01;28.78;36.51
67586;SHT31;55785;47.946;20.540;2022-08-01T15:19:27;28.66;35.49
67586;SHT31;55785;47.946;20.540;2022-08-01T15:21:52;28.66;36.11
67586;SHT31;55785;47.946;20.540;2022-08-01T15:24:17;28.53;35.86
67586;SHT31;55785;47.946;20.540;2022-08-01T15:26:42;28.56;35.79
67586;SHT31;55785;47.946;20.540;2022-08-01T15:29:08;28.36;36.41
67586;SHT31;55785;47.946;20.540;2022-08-01T15:31:33;28.05;37.13
67586;SHT31;55785;47.946;20.540;2022-08-01T15:33:59;28.08;37.07
67586;SHT31;55785;47.946;20.540;2022-08-01T15:36:24;28.08;36.97
67586;SHT31;55785;47.946;20.540;2022-08-01T15:38:49;28.29;36.47
67586;SHT31;55785;47.946;20.540;2022-08-01T15:41:15;28.29;37.06
67586;SHT31;55785;47.946;20.540;2022-08-01T15:43:40;28.23;37.75